Time;durP1;ratioP1;P1;durP2;ratioP2;P2;SDS_P1;SDS_P2;PMS_P1;PMS_P2;Temp;Humidity;BMP_temperature;BMP_pressure;BME280_temperature;BME280_humidity;BME280_pressure;Samples;Min_cycle;Max_cycle;Signal;HPM_P1;HPM_P2
2021/12/16 00:08:03;;;;;;;5.23;3.37;;;10.10;99.90;;;;;;5052574;28;20431;-70
2021/12/16 00:10:36;;;;;;;0.87;0.87;;;10.10;99.90;;;;;;5051156;28;20258;-71
2021/12/16 00:34:59;;;;;;;3.70;3.43;;;10.10;99.90;;;;;;5055732;28;20190;-72
2021/12/16 00:37:26;;;;;;;3.93;2.30;;;10.10;99.90;;;;;;5055666;28;20448;-72
2021/12/16 00:39:53;;;;;;;3.70;1.30;;;10.10;99.90;;;;;;5056106;28;20451;-72
2021/12/16 00:45:09;;;;;;;2.90;2.80;;;10.10;99.90;;;;;;5055780;28;20409;-72
2021/12/16 00:47:48;;;;;;;2.00;1.90;;;10.10;99.90;;;;;;5071171;28;20413;-72
2021/12/16 00:58:12;;;;;;;3.90;1.33;;;10.10;99.90;;;;;;5055879;28;20453;-72
2021/12/16 01:00:39;;;;;;;2.20;2.03;;;10.00;99.90;;;;;;5070959;28;20410;-71
2021/12/16 01:03:27;;;;;;;2.50;2.30;;;10.10;99.90;;;;;;5055417;28;20433;-71
2021/12/16 01:36:12;;;;;;;4.00;3.77;;;10.20;99.90;;;;;;5055089;28;20411;-71
2021/12/16 01:39:17;;;;;;;2.07;1.80;;;10.10;99.90;;;;;;5054577;28;20452;-72
2021/12/16 01:51:59;;;;;;;3.23;2.60;;;10.10;99.90;;;;;;5053400;28;20443;-71
2021/12/16 01:57:24;;;;;;;5.27;2.90;;;10.10;99.90;;;;;;5053022;28;20461;-71
2021/12/16 02:00:00;;;;;;;3.73;2.43;;;10.00;99.90;;;;;;5053181;28;20488;-72
2021/12/16 02:05:55;;;;;;;4.50;3.47;;;10.10;99.90;;;;;;5052856;28;20937;-72
2021/12/16 02:10:29;;;;;;;4.27;4.07;;;10.10;99.90;;;;;;5053196;28;20409;-72
2021/12/16 02:13:14;;;;;;;2.20;2.10;;;10.10;99.90;;;;;;5068078;28;20437;-72
2021/12/16 02:30:02;;;;;;;2.23;1.40;;;10.00;99.90;;;;;;5052794;28;20412;-71
2021/12/16 02:37:32;;;;;;;2.27;2.17;;;10.10;99.90;;;;;;5052587;28;20544;-71
2021/12/16 02:39:58;;;;;;;4.83;1.53;;;10.10;99.90;;;;;;5051518;28;20402;-71
2021/12/16 02:42:35;;;;;;;3.20;2.43;;;10.10;99.90;;;;;;5052284;28;21022;-71
2021/12/16 02:50:21;;;;;;;1.90;1.80;;;10.10;99.90;;;;;;5052518;28;20477;-71
2021/12/16 02:52:47;;;;;;;3.27;2.30;;;10.00;99.90;;;;;;5051845;28;20519;-71
2021/12/16 02:55:17;;;;;;;2.30;2.10;;;10.00;99.90;;;;;;5051573;28;20433;-70
2021/12/16 02:57:52;;;;;;;3.00;2.80;;;10.00;99.90;;;;;;5052364;28;20815;-71
2021/12/16 03:00:18;;;;;;;5.37;2.57;;;10.10;99.90;;;;;;5052087;28;20413;-71
2021/12/16 03:02:47;;;;;;;3.40;1.53;;;10.10;99.90;;;;;;5052086;28;20440;-71
2021/12/16 03:05:14;;;;;;;0.70;0.70;;;10.10;99.90;;;;;;5051781;28;20491;-72
2021/12/16 03:07:40;;;;;;;3.30;3.00;;;10.10;99.90;;;;;;5052027;28;20959;-71
2021/12/16 03:10:54;;;;;;;2.67;2.53;;;10.10;99.90;;;;;;5051884;28;20441;-71
2021/12/16 03:13:11;;;;;;;1.70;1.43;;;10.10;99.90;;;;;;5051707;28;20201;-71
2021/12/16 03:15:55;;;;;;;5.93;4.50;;;10.10;99.90;;;;;;5067067;28;20441;-71
2021/12/16 03:18:50;;;;;;;1.03;0.93;;;10.10;99.90;;;;;;5051891;28;20540;-72
2021/12/16 03:21:24;;;;;;;2.50;0.90;;;10.10;99.90;;;;;;5051161;28;21105;-72
2021/12/16 03:26:55;;;;;;;1.40;1.00;;;10.10;99.90;;;;;;5051610;28;20402;-70
2021/12/16 03:30:16;;;;;;;2.70;2.60;;;10.10;99.90;;;;;;5051513;28;20455;-72
2021/12/16 03:37:16;;;;;;;4.03;3.73;;;10.10;99.90;;;;;;5051387;28;20432;-71
2021/12/16 03:39:52;;;;;;;8.60;2.30;;;10.10;99.90;;;;;;5051638;28;20920;-72
2021/12/16 03:42:23;;;;;;;1.47;1.23;;;10.10;99.90;;;;;;5051396;28;20409;-72
2021/12/16 03:44:59;;;;;;;5.80;2.13;;;10.10;99.90;;;;;;5051410;28;20400;-72
2021/12/16 03:47:46;;;;;;;13.53;1.83;;;10.10;99.90;;;;;;5051552;28;20789;-71
2021/12/16 03:50:17;;;;;;;1.67;1.57;;;10.10;99.90;;;;;;5051672;28;20447;-71
2021/12/16 03:52:44;;;;;;;3.90;2.17;;;10.10;99.90;;;;;;5054274;28;20411;-71
2021/12/16 03:55:11;;;;;;;2.00;1.90;;;10.10;99.90;;;;;;5055216;28;20905;-71
2021/12/16 03:57:36;;;;;;;6.33;1.53;;;10.10;99.90;;;;;;5070793;28;20452;-71
2021/12/16 04:00:09;;;;;;;8.93;3.00;;;10.10;99.90;;;;;;5055393;28;20408;-71
2021/12/16 04:02:36;;;;;;;2.90;2.70;;;10.10;99.90;;;;;;5070697;28;20798;-72
2021/12/16 04:05:04;;;;;;;3.10;2.90;;;10.00;99.90;;;;;;5053906;28;20511;-72
2021/12/16 04:07:34;;;;;;;2.83;2.70;;;10.00;99.90;;;;;;5053836;28;20780;-72
2021/12/16 04:10:01;;;;;;;2.10;1.97;;;10.00;99.90;;;;;;5055364;28;20475;-72
2021/12/16 04:12:28;;;;;;;4.10;3.40;;;10.00;99.90;;;;;;5055112;28;20471;-72
2021/12/16 04:14:57;;;;;;;1.87;1.77;;;10.00;99.90;;;;;;5054979;28;20408;-71
2021/12/16 04:17:25;;;;;;;1.90;1.80;;;10.00;99.90;;;;;;5055008;28;20820;-72
2021/12/16 04:19:51;;;;;;;5.53;3.33;;;10.00;99.90;;;;;;5053660;28;20413;-72
2021/12/16 04:22:27;;;;;;;3.47;3.27;;;9.90;99.90;;;;;;5054882;28;20435;-72
2021/12/16 04:24:52;;;;;;;10.90;3.23;;;9.90;99.90;;;;;;5054772;28;20397;-70
2021/12/16 04:27:18;;;;;;;5.13;2.50;;;9.90;99.90;;;;;;5055002;28;20973;-70
2021/12/16 04:29:44;;;;;;;1.67;1.53;;;9.90;99.90;;;;;;5054915;28;20167;-71
2021/12/16 04:32:10;;;;;;;1.77;1.07;;;9.90;99.90;;;;;;5054702;28;20190;-72
2021/12/16 04:34:36;;;;;;;2.83;1.50;;;9.90;99.90;;;;;;5054790;28;20485;-72
2021/12/16 04:37:02;;;;;;;4.70;3.80;;;9.90;99.90;;;;;;5054456;28;20171;-72
2021/12/16 04:39:30;;;;;;;1.63;1.37;;;9.90;99.90;;;;;;5054531;28;20198;-71
2021/12/16 04:41:56;;;;;;;0.93;0.83;;;9.90;99.90;;;;;;5054385;28;20487;-71
2021/12/16 04:44:24;;;;;;;3.73;3.53;;;9.90;99.90;;;;;;5054560;28;20486;-72
2021/12/16 04:46:50;;;;;;;5.07;4.67;;;9.80;99.90;;;;;;5069797;28;20436;-71
2021/12/16 04:49:16;;;;;;;1.40;1.30;;;9.80;99.90;;;;;;5053166;28;20409;-71
2021/12/16 04:51:45;;;;;;;2.20;2.10;;;9.80;99.90;;;;;;5054451;28;20500;-71
2021/12/16 04:54:13;;;;;;;2.40;2.30;;;9.80;99.90;;;;;;5054351;28;20507;-71
2021/12/16 04:56:40;;;;;;;4.20;2.50;;;9.80;99.90;;;;;;5054079;28;20516;-72
2021/12/16 04:59:08;;;;;;;2.60;2.40;;;9.80;99.90;;;;;;5054234;28;20457;-72
2021/12/16 05:01:48;;;;;;;3.93;3.63;;;9.80;99.90;;;;;;5054255;28;20427;-72
2021/12/16 05:04:14;;;;;;;1.40;1.30;;;9.80;99.90;;;;;;5068722;28;20915;-72
2021/12/16 05:06:40;;;;;;;1.50;1.10;;;9.80;99.90;;;;;;5053039;28;20830;-71
2021/12/16 05:09:10;;;;;;;2.97;1.97;;;9.90;99.90;;;;;;5054142;28;20429;-71
2021/12/16 05:11:36;;;;;;;3.03;2.20;;;9.80;99.90;;;;;;5054091;28;20269;-71
2021/12/16 05:14:06;;;;;;;4.83;4.47;;;9.90;99.90;;;;;;5069510;28;20434;-71
2021/12/16 05:16:32;;;;;;;1.73;1.20;;;9.90;99.90;;;;;;5053829;28;20775;-71
2021/12/16 05:18:58;;;;;;;8.10;1.93;;;9.90;99.90;;;;;;5053909;28;20444;-71
2021/12/16 05:26:40;;;;;;;3.10;2.90;;;9.80;99.90;;;;;;5053867;28;20455;-72
2021/12/16 05:29:06;;;;;;;1.80;1.70;;;9.70;99.90;;;;;;5054721;28;20409;-72
2021/12/16 05:31:31;;;;;;;3.70;2.97;;;9.70;99.90;;;;;;5054792;28;20229;-71
2021/12/16 05:33:59;;;;;;;1.70;1.60;;;9.80;99.90;;;;;;5054118;28;20217;-72
2021/12/16 05:36:24;;;;;;;1.43;1.33;;;9.70;99.90;;;;;;5053428;28;20171;-71
2021/12/16 05:38:50;;;;;;;1.60;1.03;;;9.70;99.90;;;;;;5053203;28;20460;-71
2021/12/16 05:41:18;;;;;;;1.70;1.60;;;9.70;99.90;;;;;;5052097;28;20167;-71
2021/12/16 05:43:45;;;;;;;2.60;1.70;;;9.70;99.90;;;;;;5053385;28;20167;-71
2021/12/16 05:46:12;;;;;;;1.17;1.07;;;9.70;99.90;;;;;;5053023;28;20454;-71
2021/12/16 05:48:42;;;;;;;2.50;2.30;;;9.70;99.90;;;;;;5053326;28;20413;-71
2021/12/16 05:51:23;;;;;;;0.70;0.60;;;9.70;99.90;;;;;;5053366;28;20548;-72
2021/12/16 05:53:51;;;;;;;15.43;2.07;;;9.70;99.90;;;;;;5053932;28;20894;-72
2021/12/16 05:56:17;;;;;;;5.47;4.10;;;9.60;99.90;;;;;;5054039;28;20426;-71
2021/12/16 05:58:42;;;;;;;2.73;2.60;;;9.60;99.90;;;;;;5054158;28;20456;-72
2021/12/16 06:01:12;;;;;;;7.27;2.67;;;9.60;99.90;;;;;;5054496;28;20523;-71
2021/12/16 06:03:38;;;;;;;2.47;2.17;;;9.60;99.90;;;;;;5054423;28;20163;-72
2021/12/16 06:06:04;;;;;;;4.93;2.10;;;9.50;99.90;;;;;;5051747;28;20412;-72
2021/12/16 06:08:30;;;;;;;1.67;1.43;;;9.50;99.90;;;;;;5052907;28;20401;-72
2021/12/16 06:13:31;;;;;;;2.33;2.13;;;9.50;99.90;;;;;;5052974;28;20808;-73
2021/12/16 06:29:18;;;;;;;3.90;1.83;;;9.20;99.90;;;;;;5052740;28;20485;-71
2021/12/16 06:31:44;;;;;;;3.00;1.20;;;9.10;99.90;;;;;;5051734;28;20865;-72
2021/12/16 06:34:09;;;;;;;1.87;1.77;;;9.10;99.90;;;;;;5068797;28;20510;-72
2021/12/16 06:36:36;;;;;;;2.27;1.63;;;9.00;99.90;;;;;;5068622;28;20163;-72
2021/12/16 06:39:03;;;;;;;1.63;1.53;;;8.90;99.90;;;;;;5052354;28;20245;-72
2021/12/16 06:41:34;;;;;;;0.93;0.87;;;8.80;99.90;;;;;;5052390;28;20900;-72
2021/12/16 06:44:03;;;;;;;2.60;2.40;;;8.80;99.90;;;;;;5052528;28;20401;-72
2021/12/16 06:46:34;;;;;;;3.23;3.03;;;8.70;99.90;;;;;;5052001;28;20823;-72
2021/12/16 06:49:01;;;;;;;2.17;2.00;;;8.60;99.90;;;;;;5052370;28;20405;-72
2021/12/16 06:51:52;;;;;;;3.20;2.90;;;8.50;99.90;;;;;;5052113;28;20421;-72
2021/12/16 06:54:21;;;;;;;1.37;1.27;;;8.40;99.90;;;;;;5051554;28;20811;-71
2021/12/16 06:56:56;;;;;;;0.70;0.50;;;8.30;99.90;;;;;;5051937;28;20786;-71
2021/12/16 06:59:35;;;;;;;1.23;1.07;;;8.20;99.90;;;;;;5052084;28;20452;-72
2021/12/16 07:04:34;;;;;;;1.33;1.23;;;8.20;99.90;;;;;;5052256;28;20404;-72
2021/12/16 07:07:01;;;;;;;1.50;1.27;;;8.10;99.90;;;;;;5051683;28;20404;-71
2021/12/16 07:09:27;;;;;;;3.87;2.47;;;8.20;99.90;;;;;;5051979;28;20444;-72
2021/12/16 07:11:56;;;;;;;1.70;1.50;;;8.20;99.90;;;;;;5051895;28;20530;-72
2021/12/16 07:14:34;;;;;;;1.53;0.90;;;8.10;99.90;;;;;;5051870;28;20416;-72
2021/12/16 07:17:01;;;;;;;1.17;1.00;;;8.00;99.90;;;;;;5067888;28;20926;-72
2021/12/16 07:19:26;;;;;;;1.33;1.23;;;8.10;99.90;;;;;;5051863;28;20993;-72
2021/12/16 07:21:52;;;;;;;2.37;2.17;;;8.00;99.90;;;;;;5067481;28;20436;-72
2021/12/16 07:24:20;;;;;;;2.40;2.20;;;7.90;99.90;;;;;;5051837;28;20159;-72
2021/12/16 07:26:47;;;;;;;3.37;1.63;;;7.90;99.90;;;;;;5054686;28;20190;-72
2021/12/16 07:29:13;;;;;;;8.37;1.90;;;7.90;99.90;;;;;;5058254;28;20492;-72
2021/12/16 07:31:39;;;;;;;1.67;1.57;;;8.00;99.90;;;;;;5058326;28;20457;-71
2021/12/16 07:34:08;;;;;;;2.60;2.50;;;8.00;99.90;;;;;;5057065;28;20404;-72
2021/12/16 07:36:36;;;;;;;0.93;0.83;;;7.90;99.90;;;;;;5057913;28;20415;-72
2021/12/16 07:39:04;;;;;;;1.30;1.20;;;7.90;99.90;;;;;;5058272;28;20452;-72
2021/12/16 07:41:33;;;;;;;4.17;1.17;;;7.80;99.90;;;;;;5058202;28;20464;-72
2021/12/16 07:44:12;;;;;;;3.53;1.63;;;7.90;99.90;;;;;;5058333;28;20405;-72
2021/12/16 07:46:42;;;;;;;4.20;1.53;;;7.80;99.90;;;;;;5058117;28;20401;-72
2021/12/16 07:49:10;;;;;;;18.40;2.07;;;7.80;99.90;;;;;;5058225;28;20416;-72
2021/12/16 07:51:39;;;;;;;1.57;1.47;;;7.80;99.90;;;;;;5058218;28;20492;-72
2021/12/16 07:54:05;;;;;;;3.23;3.03;;;7.90;99.90;;;;;;5058201;28;20397;-72
2021/12/16 07:56:31;;;;;;;4.43;4.00;;;7.90;99.90;;;;;;5057828;28;20467;-72
2021/12/16 07:58:56;;;;;;;1.30;1.20;;;8.00;99.90;;;;;;5058374;28;20526;-72
2021/12/16 08:01:23;;;;;;;2.00;1.90;;;8.00;99.90;;;;;;5058244;28;20568;-72
2021/12/16 08:03:49;;;;;;;1.93;1.83;;;8.10;99.90;;;;;;5058235;28;20167;-72
2021/12/16 08:06:21;;;;;;;0.97;0.87;;;8.20;99.90;;;;;;5058134;28;20393;-72
2021/12/16 08:08:48;;;;;;;12.03;4.10;;;8.30;99.90;;;;;;5057064;28;20414;-72
2021/12/16 08:11:14;;;;;;;4.53;2.97;;;8.40;99.90;;;;;;5058137;28;20440;-72
2021/12/16 08:13:40;;;;;;;1.30;1.00;;;8.40;99.90;;;;;;5056904;28;20448;-73
2021/12/16 08:16:06;;;;;;;1.30;1.20;;;8.50;99.90;;;;;;5058290;28;20167;-73
2021/12/16 08:18:32;;;;;;;5.17;3.63;;;8.50;99.90;;;;;;5059779;28;20195;-73
2021/12/16 08:20:57;;;;;;;2.33;2.17;;;8.60;99.90;;;;;;5058420;28;20401;-71
2021/12/16 08:23:23;;;;;;;1.53;1.17;;;8.60;99.90;;;;;;5058045;28;20182;-72
2021/12/16 08:25:49;;;;;;;3.83;2.20;;;8.70;99.90;;;;;;5073185;28;20171;-71
2021/12/16 08:28:14;;;;;;;1.70;1.10;;;8.70;99.90;;;;;;5057796;28;20427;-70
2021/12/16 08:30:48;;;;;;;0.70;0.50;;;8.80;99.90;;;;;;5073379;28;20178;-71
2021/12/16 08:33:15;;;;;;;6.45;5.75;;;8.80;99.90;;;;;;5056736;28;20430;-71
2021/12/16 08:35:45;;;;;;;2.10;1.53;;;8.90;99.90;;;;;;5057585;28;20198;-68
2021/12/16 08:38:14;;;;;;;1.53;1.43;;;9.00;99.90;;;;;;5056301;28;20794;-68
2021/12/16 08:40:41;;;;;;;2.70;2.50;;;9.20;99.90;;;;;;5054680;28;20401;-69
2021/12/16 08:43:09;;;;;;;1.87;1.77;;;9.20;99.90;;;;;;5054512;28;20794;-68
2021/12/16 08:45:36;;;;;;;3.30;1.97;;;9.40;99.90;;;;;;5054290;28;20411;-68
2021/12/16 08:48:04;;;;;;;3.00;1.43;;;9.50;99.90;;;;;;5054628;28;20441;-68
2021/12/16 08:50:33;;;;;;;24.07;2.20;;;9.70;99.90;;;;;;5054477;28;20424;-68
2021/12/16 08:53:00;;;;;;;0.97;0.87;;;9.60;99.90;;;;;;5054471;28;20425;-67
2021/12/16 08:55:28;;;;;;;2.00;1.90;;;9.60;99.90;;;;;;5054049;28;20436;-67
2021/12/16 08:57:56;;;;;;;1.77;1.67;;;9.70;99.90;;;;;;5054208;28;20460;-68
2021/12/16 09:00:27;;;;;;;2.93;2.20;;;9.90;99.90;;;;;;5054351;28;20433;-68
2021/12/16 09:02:52;;;;;;;3.37;3.07;;;9.80;99.90;;;;;;5054312;28;20417;-68
2021/12/16 09:05:19;;;;;;;5.27;4.17;;;10.00;99.90;;;;;;5053942;28;20408;-68
2021/12/16 09:07:48;;;;;;;4.40;4.00;;;10.30;99.90;;;;;;5054233;28;20650;-68
2021/12/16 09:10:21;;;;;;;1.40;1.30;;;10.60;99.90;;;;;;5054055;28;20407;-68
2021/12/16 09:15:24;;;;;;;8.73;2.20;;;10.90;99.90;;;;;;5054096;28;20416;-68
2021/12/16 09:17:52;;;;;;;3.67;2.53;;;10.80;99.90;;;;;;5054044;28;20441;-68
2021/12/16 09:20:18;;;;;;;9.70;3.03;;;11.00;99.90;;;;;;5053949;28;20402;-68
2021/12/16 09:22:43;;;;;;;1.80;1.70;;;11.10;99.90;;;;;;5053847;28;20995;-68
2021/12/16 09:25:10;;;;;;;1.77;1.67;;;10.90;99.90;;;;;;5053609;28;20393;-68
2021/12/16 09:27:37;;;;;;;0.90;0.90;;;10.90;99.90;;;;;;5053795;28;20167;-68
2021/12/16 09:30:06;;;;;;;1.53;1.43;;;10.90;99.90;;;;;;5053839;28;20440;-68
2021/12/16 09:32:32;;;;;;;2.20;1.47;;;11.00;99.90;;;;;;5052408;28;20448;-68
2021/12/16 09:34:59;;;;;;;3.13;1.57;;;11.30;99.90;;;;;;5068812;28;20437;-68
2021/12/16 09:37:25;;;;;;;1.60;1.50;;;11.40;99.90;;;;;;5053500;28;20402;-68
2021/12/16 09:39:50;;;;;;;5.50;2.97;;;11.40;99.90;;;;;;5053606;28;20401;-68
2021/12/16 09:42:16;;;;;;;5.27;2.77;;;11.50;99.90;;;;;;5053604;28;20426;-68
2021/12/16 09:44:42;;;;;;;1.90;1.80;;;11.30;99.90;;;;;;5053533;28;20276;-68
2021/12/16 09:47:11;;;;;;;2.63;2.50;;;11.40;99.90;;;;;;5053257;28;20159;-68
2021/12/16 09:49:37;;;;;;;3.13;2.27;;;11.50;99.90;;;;;;5052971;28;20644;-68
2021/12/16 09:52:06;;;;;;;4.80;2.97;;;11.30;99.90;;;;;;5053396;28;20417;-68
2021/12/16 09:54:34;;;;;;;3.73;3.53;;;11.30;99.90;;;;;;5053170;28;20409;-68
2021/12/16 09:57:00;;;;;;;2.80;2.70;;;11.50;99.90;;;;;;5052953;28;20416;-68
2021/12/16 09:59:29;;;;;;;1.73;1.63;;;11.50;99.90;;;;;;5052782;28;20510;-68
2021/12/16 10:01:58;;;;;;;2.73;2.63;;;11.60;99.90;;;;;;5052626;28;20421;-68
2021/12/16 10:04:31;;;;;;;3.00;2.80;;;11.70;99.90;;;;;;5052905;28;20764;-68
2021/12/16 10:06:59;;;;;;;6.50;2.30;;;11.60;99.90;;;;;;5052607;28;20408;-68
2021/12/16 10:09:26;;;;;;;3.17;2.67;;;11.50;99.90;;;;;;5052973;28;20477;-68
2021/12/16 10:11:55;;;;;;;7.90;3.57;;;11.40;99.90;;;;;;5052843;28;20435;-68
2021/12/16 10:19:41;;;;;;;12.90;4.60;;;11.20;99.90;;;;;;5052845;28;20462;-68
2021/12/16 10:22:33;;;;;;;3.13;2.93;;;11.30;99.90;;;;;;5052662;28;20433;-68
2021/12/16 10:25:30;;;;;;;2.53;2.33;;;11.30;99.90;;;;;;5052582;28;20173;-68
2021/12/16 10:28:17;;;;;;;3.17;2.93;;;11.30;99.90;;;;;;5052757;28;20423;-68
2021/12/16 10:31:04;;;;;;;4.40;2.53;;;11.40;99.90;;;;;;5052862;28;20754;-68
2021/12/16 10:33:44;;;;;;;3.70;3.50;;;11.30;99.90;;;;;;5052687;28;20401;-68
2021/12/16 10:36:20;;;;;;;1.83;1.73;;;11.40;99.90;;;;;;5052316;28;20407;-68
2021/12/16 10:38:53;;;;;;;8.00;3.03;;;11.40;99.90;;;;;;5052428;28;20448;-68
2021/12/16 10:41:41;;;;;;;6.20;5.50;;;11.40;99.90;;;;;;5052845;28;21077;-68
2021/12/16 10:44:12;;;;;;;3.63;2.80;;;11.30;99.90;;;;;;5051093;28;20490;-68
2021/12/16 10:47:04;;;;;;;11.90;2.10;;;11.30;99.90;;;;;;5052291;28;20450;-67
2021/12/16 10:49:55;;;;;;;3.83;2.33;;;11.30;99.90;;;;;;5046693;28;20490;-68
2021/12/16 10:52:27;;;;;;;2.57;2.47;;;11.30;99.90;;;;;;5050161;28;20438;-68
2021/12/16 10:54:54;;;;;;;5.23;4.63;;;11.40;99.90;;;;;;5052070;28;20425;-68
2021/12/16 10:57:27;;;;;;;5.13;1.80;;;11.40;99.90;;;;;;5052329;28;20413;-68
2021/12/16 10:59:58;;;;;;;4.20;2.93;;;11.30;99.90;;;;;;5052250;28;20421;-68
2021/12/16 11:02:25;;;;;;;5.67;3.43;;;11.30;99.90;;;;;;5051236;28;20421;-68
2021/12/16 11:04:54;;;;;;;2.30;1.30;;;11.40;99.90;;;;;;5051982;28;20397;-68
2021/12/16 11:07:27;;;;;;;4.40;3.57;;;11.40;99.90;;;;;;5052010;28;20471;-68
2021/12/16 11:10:05;;;;;;;1.57;1.47;;;11.30;99.90;;;;;;5052141;28;20404;-68
2021/12/16 11:12:33;;;;;;;2.53;2.33;;;11.30;99.90;;;;;;5050772;28;20941;-68
2021/12/16 11:15:04;;;;;;;2.80;2.60;;;11.30;99.90;;;;;;5052009;28;20924;-68
2021/12/16 11:17:44;;;;;;;2.33;2.13;;;11.30;99.90;;;;;;5051811;28;20389;-68
2021/12/16 11:20:10;;;;;;;1.40;1.30;;;11.60;99.90;;;;;;5050641;28;20771;-68
2021/12/16 11:22:38;;;;;;;1.77;1.30;;;11.80;99.90;;;;;;5051782;28;20424;-68
2021/12/16 11:25:38;;;;;;;4.77;3.90;;;11.90;99.90;;;;;;5051642;28;20238;-68
2021/12/16 11:28:15;;;;;;;4.80;4.40;;;12.00;99.90;;;;;;5044049;28;20429;-67
2021/12/16 11:30:45;;;;;;;2.40;2.20;;;12.00;99.90;;;;;;5052076;28;20894;-68
2021/12/16 11:33:30;;;;;;;0.80;0.70;;;12.20;99.90;;;;;;5051787;28;20930;-68
2021/12/16 11:36:04;;;;;;;2.20;2.00;;;12.20;99.90;;;;;;5051704;28;20405;-68
2021/12/16 11:38:33;;;;;;;4.30;3.50;;;12.30;99.90;;;;;;5045761;28;20452;-68
2021/12/16 11:41:05;;;;;;;5.77;3.77;;;12.30;99.90;;;;;;5012116;28;20514;-68
2021/12/16 11:43:40;;;;;;;3.77;2.80;;;12.30;99.90;;;;;;5032030;28;20418;-68
2021/12/16 11:46:16;;;;;;;2.50;1.90;;;12.30;99.90;;;;;;5031544;28;20406;-68
2021/12/16 11:48:41;;;;;;;6.03;5.37;;;12.20;99.90;;;;;;5030743;28;20426;-67
2021/12/16 11:51:40;;;;;;;6.73;2.50;;;12.20;99.90;;;;;;5026848;28;20427;-68
2021/12/16 11:54:15;;;;;;;3.40;3.10;;;12.10;99.90;;;;;;5025702;28;20266;-68
2021/12/16 11:56:47;;;;;;;3.80;2.20;;;12.10;99.90;;;;;;5015941;28;20907;-68
2021/12/16 11:59:25;;;;;;;7.03;6.37;;;12.00;99.90;;;;;;5011852;28;20454;-68
2021/12/16 12:01:51;;;;;;;3.90;2.20;;;12.10;99.90;;;;;;5011835;28;20518;-68
2021/12/16 12:04:22;;;;;;;3.40;2.20;;;12.00;99.90;;;;;;5011865;28;20818;-68
2021/12/16 12:06:48;;;;;;;7.57;6.40;;;12.00;99.90;;;;;;5016732;28;20435;-68
2021/12/16 12:09:13;;;;;;;2.20;1.10;;;12.00;99.90;;;;;;5041486;28;20424;-68
2021/12/16 12:11:42;;;;;;;7.27;3.87;;;12.00;99.90;;;;;;5031474;28;20203;-68
2021/12/16 12:14:12;;;;;;;6.10;2.67;;;12.00;99.90;;;;;;5034971;28;20254;-68
2021/12/16 12:16:40;;;;;;;3.53;3.33;;;12.00;99.90;;;;;;5031850;28;20542;-68
2021/12/16 12:19:15;;;;;;;7.13;4.77;;;12.00;99.90;;;;;;5015311;28;20596;-68
2021/12/16 12:22:02;;;;;;;4.97;4.63;;;12.10;99.90;;;;;;5015689;28;20531;-68
2021/12/16 12:24:46;;;;;;;6.77;3.50;;;12.10;99.90;;;;;;5015379;28;20769;-68
2021/12/16 12:27:25;;;;;;;5.77;3.13;;;12.10;99.90;;;;;;5015704;28;20419;-68
2021/12/16 12:30:00;;;;;;;8.80;5.50;;;12.10;99.90;;;;;;5015279;28;20431;-68
2021/12/16 12:32:32;;;;;;;4.30;3.50;;;12.10;99.90;;;;;;5015277;28;20426;-68
2021/12/16 12:35:00;;;;;;;2.70;1.73;;;12.10;99.90;;;;;;5015276;28;21836;-68
2021/12/16 12:37:31;;;;;;;3.77;3.30;;;12.20;99.90;;;;;;5022356;28;20423;-68
2021/12/16 12:40:04;;;;;;;7.20;3.37;;;12.30;99.90;;;;;;5015176;28;20439;-68
2021/12/16 12:42:30;;;;;;;3.70;3.00;;;12.50;99.90;;;;;;5014983;28;20438;-68
2021/12/16 12:44:55;;;;;;;9.80;4.33;;;12.70;99.90;;;;;;5014722;28;20408;-68
2021/12/16 12:47:31;;;;;;;8.93;3.07;;;12.90;99.90;;;;;;5021544;28;20238;-68
2021/12/16 12:50:11;;;;;;;12.27;5.97;;;13.10;99.90;;;;;;5015671;28;20189;-68
2021/12/16 12:52:37;;;;;;;5.50;5.07;;;13.50;99.90;;;;;;5014864;28;20897;-68
2021/12/16 12:55:18;;;;;;;4.20;3.40;;;13.60;99.90;;;;;;5014376;28;20434;-68
2021/12/16 12:57:45;;;;;;;4.60;2.10;;;13.80;99.90;;;;;;5032000;28;20513;-68
2021/12/16 13:00:34;;;;;;;8.17;4.43;;;14.00;99.90;;;;;;5034309;28;20486;-68
2021/12/16 13:03:16;;;;;;;5.27;2.37;;;14.00;99.90;;;;;;5033108;28;20955;-68
2021/12/16 13:05:54;;;;;;;6.73;5.60;;;14.00;99.90;;;;;;5027996;28;20423;-68
2021/12/16 13:08:28;;;;;;;6.30;3.50;;;14.00;99.90;;;;;;5019447;28;20512;-68
2021/12/16 13:11:01;;;;;;;7.57;4.67;;;13.90;99.90;;;;;;5014007;28;21021;-68
2021/12/16 13:13:32;;;;;;;5.50;5.00;;;14.00;99.90;;;;;;5014461;28;20403;-68
2021/12/16 13:29:37;;;;;;;2.80;2.03;;;13.30;99.90;;;;;;5014863;28;20419;-67
2021/12/16 13:34:36;;;;;;;4.00;3.73;;;13.10;99.90;;;;;;5034679;28;20505;-67
2021/12/16 13:37:08;;;;;;;4.80;2.97;;;13.00;99.90;;;;;;5016323;28;20434;-67
2021/12/16 13:39:43;;;;;;;6.53;3.93;;;12.90;99.90;;;;;;5014627;28;20466;-67
2021/12/16 13:42:13;;;;;;;5.43;4.83;;;12.90;99.90;;;;;;5014575;28;20519;-67
2021/12/16 13:44:46;;;;;;;10.67;5.57;;;12.80;99.90;;;;;;5024593;28;20418;-68
2021/12/16 13:47:28;;;;;;;5.97;4.17;;;12.60;99.90;;;;;;5033314;28;20403;-68
2021/12/16 13:58:37;;;;;;;6.00;5.60;;;12.40;99.90;;;;;;5034159;28;20457;-68
2021/12/16 14:01:28;;;;;;;6.13;4.40;;;12.40;99.90;;;;;;5033102;28;20414;-67
2021/12/16 14:04:24;;;;;;;3.33;3.13;;;12.40;99.90;;;;;;5039840;28;20497;-67
2021/12/16 14:07:00;;;;;;;5.73;2.13;;;12.50;99.90;;;;;;5040533;28;20413;-67
2021/12/16 14:09:31;;;;;;;4.77;1.53;;;12.30;99.90;;;;;;5042107;28;20449;-67
2021/12/16 14:26:39;;;;;;;3.70;2.17;;;11.90;99.90;;;;;;5033905;28;20405;-68
2021/12/16 14:32:39;;;;;;;2.50;2.00;;;11.80;99.90;;;;;;5017331;28;20441;-67
2021/12/16 14:34:57;;;;;;;8.23;2.70;;;11.70;99.90;;;;;;5026021;28;20473;-68
2021/12/16 14:50:29;;;;;;;4.17;2.97;;;11.40;99.90;;;;;;5014096;28;20407;-68
2021/12/16 14:52:55;;;;;;;2.60;1.87;;;11.40;99.90;;;;;;5023966;28;20445;-68
2021/12/16 14:55:24;;;;;;;10.77;2.50;;;11.30;99.90;;;;;;5017384;28;20510;-67
2021/12/16 14:57:53;;;;;;;2.53;2.10;;;11.30;99.90;;;;;;5018991;28;20889;-68
2021/12/16 15:00:30;;;;;;;7.23;4.67;;;11.20;99.90;;;;;;5015144;28;20442;-68
2021/12/16 15:03:11;;;;;;;6.80;1.70;;;11.20;99.90;;;;;;5012849;28;20430;-68
2021/12/16 15:05:47;;;;;;;2.10;1.73;;;11.20;99.90;;;;;;5014881;28;20749;-68
2021/12/16 15:08:36;;;;;;;1.60;1.50;;;11.10;99.90;;;;;;5031731;28;20429;-68
2021/12/16 15:11:05;;;;;;;4.40;3.67;;;11.10;99.90;;;;;;5032736;28;20418;-67
2021/12/16 15:13:51;;;;;;;8.07;3.43;;;11.10;99.90;;;;;;5027998;28;20410;-68
2021/12/16 15:39:37;;;;;;;2.63;2.47;;;10.70;99.90;;;;;;5013741;28;20469;-67
2021/12/16 15:42:49;;;;;;;5.27;3.60;;;10.70;99.90;;;;;;5018169;28;20442;-67
2021/12/16 15:45:23;;;;;;;8.83;4.43;;;10.50;99.90;;;;;;5032233;28;20406;-67
2021/12/16 15:48:10;;;;;;;5.67;5.13;;;10.60;99.90;;;;;;5034003;28;20839;-67
2021/12/16 15:50:54;;;;;;;2.30;2.10;;;10.60;99.90;;;;;;5036780;28;20481;-67
2021/12/16 15:53:24;;;;;;;4.37;4.00;;;10.60;99.90;;;;;;5022129;28;20814;-68
2021/12/16 15:56:06;;;;;;;2.83;2.63;;;10.60;99.90;;;;;;5031013;28;21007;-68
2021/12/16 15:58:54;;;;;;;2.17;1.80;;;10.60;99.90;;;;;;5030666;28;20508;-68
2021/12/16 16:01:33;;;;;;;7.03;1.43;;;10.60;99.90;;;;;;5035538;28;20437;-68
2021/12/16 16:04:01;;;;;;;5.27;2.90;;;10.60;99.90;;;;;;5018428;28;20429;-68
2021/12/16 16:06:27;;;;;;;2.40;1.97;;;10.50;99.90;;;;;;5034329;28;20432;-67
2021/12/16 16:08:59;;;;;;;5.10;4.60;;;10.50;99.90;;;;;;5021014;28;20427;-68
2021/12/16 16:11:32;;;;;;;7.40;5.70;;;10.50;99.90;;;;;;5016731;28;20447;-68
2021/12/16 16:14:03;;;;;;;12.53;5.40;;;10.50;99.90;;;;;;5036021;28;20489;-68
2021/12/16 16:16:43;;;;;;;5.87;2.23;;;10.50;99.90;;;;;;5036034;28;20501;-68
2021/12/16 16:19:12;;;;;;;1.87;1.77;;;10.60;99.90;;;;;;5033673;28;20457;-68
2021/12/16 16:21:42;;;;;;;2.47;2.30;;;10.60;99.90;;;;;;5017366;28;20431;-67
2021/12/16 16:24:13;;;;;;;5.53;2.73;;;10.50;99.90;;;;;;5036259;28;20857;-67
2021/12/16 16:26:40;;;;;;;3.67;3.47;;;10.50;99.90;;;;;;5036036;28;20409;-68
2021/12/16 16:29:12;;;;;;;4.03;3.73;;;10.60;99.90;;;;;;5034583;28;20414;-68
2021/12/16 16:31:38;;;;;;;3.13;2.90;;;10.60;99.90;;;;;;5034402;28;20437;-68
2021/12/16 16:34:20;;;;;;;4.77;4.07;;;10.50;99.90;;;;;;5034556;28;20801;-68
2021/12/16 16:36:51;;;;;;;3.23;2.97;;;10.50;99.90;;;;;;5035393;28;20405;-68
2021/12/16 16:39:20;;;;;;;6.87;3.70;;;10.50;99.90;;;;;;5017169;28;20862;-67
2021/12/16 16:41:57;;;;;;;2.73;2.63;;;10.50;99.90;;;;;;5020444;28;20441;-68
2021/12/16 16:44:25;;;;;;;2.07;1.97;;;10.40;99.90;;;;;;5034944;28;20410;-67
2021/12/16 16:47:01;;;;;;;3.13;2.93;;;10.40;99.90;;;;;;5034089;28;20474;-68
2021/12/16 16:49:47;;;;;;;5.63;3.03;;;10.40;99.90;;;;;;5034586;28;20417;-68
2021/12/16 16:52:17;;;;;;;5.43;2.73;;;10.40;99.90;;;;;;5032513;28;20580;-68
2021/12/16 16:54:50;;;;;;;4.57;3.00;;;10.40;99.90;;;;;;5034024;28;20434;-68
2021/12/16 16:57:31;;;;;;;5.17;4.80;;;10.40;99.90;;;;;;5034482;28;20402;-68
2021/12/16 16:59:59;;;;;;;3.07;2.80;;;10.40;99.90;;;;;;5033148;28;20460;-68
2021/12/16 17:02:56;;;;;;;1.13;1.13;;;10.40;99.90;;;;;;5026192;28;20460;-69
2021/12/16 17:05:29;;;;;;;4.93;0.90;;;10.40;99.90;;;;;;5030298;28;20924;-68